sensor_id;sensor_type;location;lat;lon;timestamp;temperature;humidity
15574;DHT22;7888;46.748;8.102;2022-10-16T00:01:24;17.10;58.20
15574;DHT22;7888;46.748;8.102;2022-10-16T00:03:52;17.10;58.10
15574;DHT22;7888;46.748;8.102;2022-10-16T00:06:19;17.10;58.20
15574;DHT22;7888;46.748;8.102;2022-10-16T00:08:46;17.10;58.30
15574;DHT22;7888;46.748;8.102;2022-10-16T00:11:19;17.10;58.40
15574;DHT22;7888;46.748;8.102;2022-10-16T00:13:51;17.10;58.00
15574;DHT22;7888;46.748;8.102;2022-10-16T00:16:21;17.10;57.90
15574;DHT22;7888;46.748;8.102;2022-10-16T00:18:48;17.10;57.90
15574;DHT22;7888;46.748;8.102;2022-10-16T00:21:20;17.10;57.90
15574;DHT22;7888;46.748;8.102;2022-10-16T00:23:57;17.10;58.20
15574;DHT22;7888;46.748;8.102;2022-10-16T00:26:26;17.10;58.30
15574;DHT22;7888;46.748;8.102;2022-10-16T00:28:53;17.10;58.20
15574;DHT22;7888;46.748;8.102;2022-10-16T00:31:21;17.10;58.30
15574;DHT22;7888;46.748;8.102;2022-10-16T00:33:48;17.10;58.20
15574;DHT22;7888;46.748;8.102;2022-10-16T00:36:17;17.10;58.20
15574;DHT22;7888;46.748;8.102;2022-10-16T00:38:45;17.10;58.10
15574;DHT22;7888;46.748;8.102;2022-10-16T00:41:15;17.10;58.10
15574;DHT22;7888;46.748;8.102;2022-10-16T00:43:47;17.10;58.10
15574;DHT22;7888;46.748;8.102;2022-10-16T00:49:06;17.10;58.10
15574;DHT22;7888;46.748;8.102;2022-10-16T00:51:47;17.10;57.90
15574;DHT22;7888;46.748;8.102;2022-10-16T00:54:23;17.10;58.10
15574;DHT22;7888;46.748;8.102;2022-10-16T00:57:02;17.10;58.20
15574;DHT22;7888;46.748;8.102;2022-10-16T00:59:36;17.10;58.10
15574;DHT22;7888;46.748;8.102;2022-10-16T01:02:05;17.10;58.40
15574;DHT22;7888;46.748;8.102;2022-10-16T01:04:37;17.10;58.20
15574;DHT22;7888;46.748;8.102;2022-10-16T01:07:11;17.10;58.30
15574;DHT22;7888;46.748;8.102;2022-10-16T01:13:03;17.00;58.00
15574;DHT22;7888;46.748;8.102;2022-10-16T01:16:02;17.00;58.00
15574;DHT22;7888;46.748;8.102;2022-10-16T01:21:47;17.00;57.70
15574;DHT22;7888;46.748;8.102;2022-10-16T01:24:32;16.90;57.60
15574;DHT22;7888;46.748;8.102;2022-10-16T01:27:25;16.90;57.90
15574;DHT22;7888;46.748;8.102;2022-10-16T01:29:59;16.90;57.50
15574;DHT22;7888;46.748;8.102;2022-10-16T01:32:44;16.80;57.50
15574;DHT22;7888;46.748;8.102;2022-10-16T01:35:21;16.80;57.20
15574;DHT22;7888;46.748;8.102;2022-10-16T01:38:09;16.80;57.20
15574;DHT22;7888;46.748;8.102;2022-10-16T01:40:45;16.70;57.40
15574;DHT22;7888;46.748;8.102;2022-10-16T01:43:19;16.70;57.10
15574;DHT22;7888;46.748;8.102;2022-10-16T01:45:50;16.70;57.60
15574;DHT22;7888;46.748;8.102;2022-10-16T01:48:19;16.70;57.80
15574;DHT22;7888;46.748;8.102;2022-10-16T01:51:03;16.70;57.60
15574;DHT22;7888;46.748;8.102;2022-10-16T01:53:41;16.70;57.60
15574;DHT22;7888;46.748;8.102;2022-10-16T01:56:14;16.70;57.70
15574;DHT22;7888;46.748;8.102;2022-10-16T01:58:46;16.70;57.80
15574;DHT22;7888;46.748;8.102;2022-10-16T02:01:17;16.70;58.00
15574;DHT22;7888;46.748;8.102;2022-10-16T02:03:46;16.70;57.60
15574;DHT22;7888;46.748;8.102;2022-10-16T02:06:16;16.60;57.30
15574;DHT22;7888;46.748;8.102;2022-10-16T02:08:42;16.60;57.50
15574;DHT22;7888;46.748;8.102;2022-10-16T02:11:10;16.60;57.30
15574;DHT22;7888;46.748;8.102;2022-10-16T02:13:46;16.60;57.40
15574;DHT22;7888;46.748;8.102;2022-10-16T02:16:16;16.60;57.30
15574;DHT22;7888;46.748;8.102;2022-10-16T02:18:43;16.50;57.20
15574;DHT22;7888;46.748;8.102;2022-10-16T02:21:35;16.50;57.20
15574;DHT22;7888;46.748;8.102;2022-10-16T02:26:53;16.50;57.10
15574;DHT22;7888;46.748;8.102;2022-10-16T02:29:27;16.50;57.10
15574;DHT22;7888;46.748;8.102;2022-10-16T02:32:01;16.50;57.10
15574;DHT22;7888;46.748;8.102;2022-10-16T02:34:31;16.40;57.20
15574;DHT22;7888;46.748;8.102;2022-10-16T02:36:59;16.40;57.10
15574;DHT22;7888;46.748;8.102;2022-10-16T02:39:29;16.40;56.80
15574;DHT22;7888;46.748;8.102;2022-10-16T02:41:55;16.40;56.70
15574;DHT22;7888;46.748;8.102;2022-10-16T02:44:21;16.30;56.90
15574;DHT22;7888;46.748;8.102;2022-10-16T02:46:47;16.30;56.90
15574;DHT22;7888;46.748;8.102;2022-10-16T02:49:13;16.30;56.80
15574;DHT22;7888;46.748;8.102;2022-10-16T02:51:39;16.30;57.10
15574;DHT22;7888;46.748;8.102;2022-10-16T02:54:04;16.20;57.20
15574;DHT22;7888;46.748;8.102;2022-10-16T02:56:30;16.20;57.30
15574;DHT22;7888;46.748;8.102;2022-10-16T02:58:56;16.20;57.10
15574;DHT22;7888;46.748;8.102;2022-10-16T03:01:23;16.20;57.10
15574;DHT22;7888;46.748;8.102;2022-10-16T03:03:49;16.20;57.30
15574;DHT22;7888;46.748;8.102;2022-10-16T03:06:15;16.10;57.10
15574;DHT22;7888;46.748;8.102;2022-10-16T03:08:41;16.10;57.00
15574;DHT22;7888;46.748;8.102;2022-10-16T03:11:07;16.10;57.20
15574;DHT22;7888;46.748;8.102;2022-10-16T03:13:33;16.10;57.40
15574;DHT22;7888;46.748;8.102;2022-10-16T03:15:59;16.10;57.50
15574;DHT22;7888;46.748;8.102;2022-10-16T03:18:25;16.10;57.50
15574;DHT22;7888;46.748;8.102;2022-10-16T03:20:51;16.10;57.70
15574;DHT22;7888;46.748;8.102;2022-10-16T03:23:16;16.00;57.70
15574;DHT22;7888;46.748;8.102;2022-10-16T03:25:42;16.00;57.90
15574;DHT22;7888;46.748;8.102;2022-10-16T03:28:08;16.10;58.10
15574;DHT22;7888;46.748;8.102;2022-10-16T03:30:34;16.00;58.00
15574;DHT22;7888;46.748;8.102;2022-10-16T03:33:00;16.00;58.00
15574;DHT22;7888;46.748;8.102;2022-10-16T03:35:26;16.00;58.00
15574;DHT22;7888;46.748;8.102;2022-10-16T03:37:52;16.00;58.10
15574;DHT22;7888;46.748;8.102;2022-10-16T03:40:18;16.00;58.10
15574;DHT22;7888;46.748;8.102;2022-10-16T03:42:44;16.00;58.30
15574;DHT22;7888;46.748;8.102;2022-10-16T03:45:11;16.00;58.10
15574;DHT22;7888;46.748;8.102;2022-10-16T03:47:37;16.00;58.30
15574;DHT22;7888;46.748;8.102;2022-10-16T03:50:03;16.10;58.50
15574;DHT22;7888;46.748;8.102;2022-10-16T03:52:30;16.10;58.60
15574;DHT22;7888;46.748;8.102;2022-10-16T03:54:57;16.10;58.70
15574;DHT22;7888;46.748;8.102;2022-10-16T03:57:23;16.10;58.70
15574;DHT22;7888;46.748;8.102;2022-10-16T03:59:49;16.10;58.80
15574;DHT22;7888;46.748;8.102;2022-10-16T04:02:15;16.10;58.80
15574;DHT22;7888;46.748;8.102;2022-10-16T04:04:40;16.10;58.90
15574;DHT22;7888;46.748;8.102;2022-10-16T04:07:06;16.10;59.00
15574;DHT22;7888;46.748;8.102;2022-10-16T04:09:32;16.10;59.00
15574;DHT22;7888;46.748;8.102;2022-10-16T04:11:58;16.10;58.90
15574;DHT22;7888;46.748;8.102;2022-10-16T04:14:24;16.10;59.50
15574;DHT22;7888;46.748;8.102;2022-10-16T04:16:50;16.10;59.10
15574;DHT22;7888;46.748;8.102;2022-10-16T04:19:15;16.10;59.10
15574;DHT22;7888;46.748;8.102;2022-10-16T04:21:41;16.10;59.10
15574;DHT22;7888;46.748;8.102;2022-10-16T04:24:07;16.10;59.10
15574;DHT22;7888;46.748;8.102;2022-10-16T04:26:33;16.10;59.00
15574;DHT22;7888;46.748;8.102;2022-10-16T04:28:59;16.10;59.10
15574;DHT22;7888;46.748;8.102;2022-10-16T04:31:25;16.20;59.10
15574;DHT22;7888;46.748;8.102;2022-10-16T04:33:50;16.20;59.10
15574;DHT22;7888;46.748;8.102;2022-10-16T04:36:16;16.20;58.90
15574;DHT22;7888;46.748;8.102;2022-10-16T04:38:42;16.20;59.00
15574;DHT22;7888;46.748;8.102;2022-10-16T04:41:08;16.20;59.00
15574;DHT22;7888;46.748;8.102;2022-10-16T04:43:34;16.20;58.90
15574;DHT22;7888;46.748;8.102;2022-10-16T04:46:00;16.20;58.90
15574;DHT22;7888;46.748;8.102;2022-10-16T04:48:27;16.20;58.90
15574;DHT22;7888;46.748;8.102;2022-10-16T04:50:53;16.30;58.90
15574;DHT22;7888;46.748;8.102;2022-10-16T04:53:19;16.30;58.80
15574;DHT22;7888;46.748;8.102;2022-10-16T04:55:45;16.30;58.70
15574;DHT22;7888;46.748;8.102;2022-10-16T04:58:11;16.30;59.00
15574;DHT22;7888;46.748;8.102;2022-10-16T05:00:37;16.30;58.70
15574;DHT22;7888;46.748;8.102;2022-10-16T05:03:04;16.30;58.60
15574;DHT22;7888;46.748;8.102;2022-10-16T05:05:33;16.40;58.70
15574;DHT22;7888;46.748;8.102;2022-10-16T05:07:59;16.30;58.70
15574;DHT22;7888;46.748;8.102;2022-10-16T05:10:25;16.30;58.70
15574;DHT22;7888;46.748;8.102;2022-10-16T05:12:51;16.30;58.60
15574;DHT22;7888;46.748;8.102;2022-10-16T05:15:17;16.30;58.60
15574;DHT22;7888;46.748;8.102;2022-10-16T05:17:44;16.30;58.70
15574;DHT22;7888;46.748;8.102;2022-10-16T05:20:10;16.30;58.70
15574;DHT22;7888;46.748;8.102;2022-10-16T05:22:36;16.30;58.70
15574;DHT22;7888;46.748;8.102;2022-10-16T05:25:02;16.30;58.60
15574;DHT22;7888;46.748;8.102;2022-10-16T05:27:28;16.30;58.50
15574;DHT22;7888;46.748;8.102;2022-10-16T05:29:54;16.30;58.50
15574;DHT22;7888;46.748;8.102;2022-10-16T05:32:20;16.30;58.30
15574;DHT22;7888;46.748;8.102;2022-10-16T05:34:45;16.30;58.30
15574;DHT22;7888;46.748;8.102;2022-10-16T05:37:12;16.30;58.50
15574;DHT22;7888;46.748;8.102;2022-10-16T05:39:38;16.30;58.40
15574;DHT22;7888;46.748;8.102;2022-10-16T05:42:05;16.30;58.30
15574;DHT22;7888;46.748;8.102;2022-10-16T05:44:31;16.30;58.30
15574;DHT22;7888;46.748;8.102;2022-10-16T05:46:58;16.30;58.20
15574;DHT22;7888;46.748;8.102;2022-10-16T05:49:24;16.30;58.20
15574;DHT22;7888;46.748;8.102;2022-10-16T05:51:49;16.20;58.20
15574;DHT22;7888;46.748;8.102;2022-10-16T05:54:15;16.20;58.20
15574;DHT22;7888;46.748;8.102;2022-10-16T05:56:42;16.30;58.40
15574;DHT22;7888;46.748;8.102;2022-10-16T05:59:08;16.30;58.60
15574;DHT22;7888;46.748;8.102;2022-10-16T06:01:34;16.30;58.70
15574;DHT22;7888;46.748;8.102;2022-10-16T06:04:00;16.20;58.70
15574;DHT22;7888;46.748;8.102;2022-10-16T06:06:28;16.30;58.80
15574;DHT22;7888;46.748;8.102;2022-10-16T06:08:56;16.20;58.80
15574;DHT22;7888;46.748;8.102;2022-10-16T06:11:25;16.20;58.50
15574;DHT22;7888;46.748;8.102;2022-10-16T06:13:55;16.20;58.70
15574;DHT22;7888;46.748;8.102;2022-10-16T06:16:23;16.30;58.90
15574;DHT22;7888;46.748;8.102;2022-10-16T06:18:51;16.20;58.80
15574;DHT22;7888;46.748;8.102;2022-10-16T06:21:21;16.20;58.70
15574;DHT22;7888;46.748;8.102;2022-10-16T06:23:50;16.30;58.90
15574;DHT22;7888;46.748;8.102;2022-10-16T06:26:18;16.30;58.90
15574;DHT22;7888;46.748;8.102;2022-10-16T06:28:46;16.30;58.90
15574;DHT22;7888;46.748;8.102;2022-10-16T06:31:13;16.30;58.90
15574;DHT22;7888;46.748;8.102;2022-10-16T06:33:40;16.30;59.10
15574;DHT22;7888;46.748;8.102;2022-10-16T06:36:12;16.30;59.20
15574;DHT22;7888;46.748;8.102;2022-10-16T06:38:40;16.30;59.30
15574;DHT22;7888;46.748;8.102;2022-10-16T06:41:07;16.30;59.30
15574;DHT22;7888;46.748;8.102;2022-10-16T06:43:36;16.30;59.30
15574;DHT22;7888;46.748;8.102;2022-10-16T06:46:03;16.40;59.30
15574;DHT22;7888;46.748;8.102;2022-10-16T06:48:31;16.40;59.20
15574;DHT22;7888;46.748;8.102;2022-10-16T06:51:00;16.40;59.10
15574;DHT22;7888;46.748;8.102;2022-10-16T06:53:43;16.40;59.20
15574;DHT22;7888;46.748;8.102;2022-10-16T06:56:16;16.50;59.40
15574;DHT22;7888;46.748;8.102;2022-10-16T06:58:44;16.50;59.40
15574;DHT22;7888;46.748;8.102;2022-10-16T07:01:11;16.50;59.30
15574;DHT22;7888;46.748;8.102;2022-10-16T07:03:40;16.50;59.30
15574;DHT22;7888;46.748;8.102;2022-10-16T07:06:08;16.50;59.10
15574;DHT22;7888;46.748;8.102;2022-10-16T07:08:38;16.50;59.30
15574;DHT22;7888;46.748;8.102;2022-10-16T07:11:14;16.50;59.40
15574;DHT22;7888;46.748;8.102;2022-10-16T07:13:44;16.60;59.60
15574;DHT22;7888;46.748;8.102;2022-10-16T07:16:17;16.60;59.60
15574;DHT22;7888;46.748;8.102;2022-10-16T07:18:45;16.70;60.00
15574;DHT22;7888;46.748;8.102;2022-10-16T07:21:15;16.70;59.90
15574;DHT22;7888;46.748;8.102;2022-10-16T07:23:43;16.70;59.90
15574;DHT22;7888;46.748;8.102;2022-10-16T07:26:10;16.80;59.90
15574;DHT22;7888;46.748;8.102;2022-10-16T07:28:37;16.90;59.90
15574;DHT22;7888;46.748;8.102;2022-10-16T07:31:06;17.00;60.10
15574;DHT22;7888;46.748;8.102;2022-10-16T07:33:33;17.00;60.20
15574;DHT22;7888;46.748;8.102;2022-10-16T07:36:00;17.10;60.20
15574;DHT22;7888;46.748;8.102;2022-10-16T07:38:26;17.20;60.10
15574;DHT22;7888;46.748;8.102;2022-10-16T07:41:05;17.20;60.20
15574;DHT22;7888;46.748;8.102;2022-10-16T07:43:33;17.30;60.40
15574;DHT22;7888;46.748;8.102;2022-10-16T07:45:59;17.40;60.20
15574;DHT22;7888;46.748;8.102;2022-10-16T07:48:31;17.50;60.10
15574;DHT22;7888;46.748;8.102;2022-10-16T07:51:03;17.60;59.70
15574;DHT22;7888;46.748;8.102;2022-10-16T07:53:31;17.60;59.10
15574;DHT22;7888;46.748;8.102;2022-10-16T07:56:03;17.70;59.00
15574;DHT22;7888;46.748;8.102;2022-10-16T07:58:31;17.70;58.50
15574;DHT22;7888;46.748;8.102;2022-10-16T08:00:58;17.70;58.30
15574;DHT22;7888;46.748;8.102;2022-10-16T08:03:27;17.70;58.20
15574;DHT22;7888;46.748;8.102;2022-10-16T08:05:53;17.80;58.90
15574;DHT22;7888;46.748;8.102;2022-10-16T08:08:19;17.80;58.30
15574;DHT22;7888;46.748;8.102;2022-10-16T08:10:45;17.80;58.20
15574;DHT22;7888;46.748;8.102;2022-10-16T08:13:11;17.80;58.10
15574;DHT22;7888;46.748;8.102;2022-10-16T08:15:40;17.90;58.10
15574;DHT22;7888;46.748;8.102;2022-10-16T08:18:11;17.90;58.00
15574;DHT22;7888;46.748;8.102;2022-10-16T08:20:41;18.00;57.80
15574;DHT22;7888;46.748;8.102;2022-10-16T08:23:09;18.00;57.50
15574;DHT22;7888;46.748;8.102;2022-10-16T08:25:38;18.10;57.40
15574;DHT22;7888;46.748;8.102;2022-10-16T08:28:06;18.10;57.40
15574;DHT22;7888;46.748;8.102;2022-10-16T08:30:34;18.20;57.80
15574;DHT22;7888;46.748;8.102;2022-10-16T08:33:01;18.20;57.80
15574;DHT22;7888;46.748;8.102;2022-10-16T08:35:27;18.30;57.80
15574;DHT22;7888;46.748;8.102;2022-10-16T08:37:54;18.30;58.00
15574;DHT22;7888;46.748;8.102;2022-10-16T08:40:25;18.40;57.90
15574;DHT22;7888;46.748;8.102;2022-10-16T08:48:59;18.60;58.10
15574;DHT22;7888;46.748;8.102;2022-10-16T08:51:30;18.60;58.20
15574;DHT22;7888;46.748;8.102;2022-10-16T08:54:05;18.70;58.20
15574;DHT22;7888;46.748;8.102;2022-10-16T08:56:37;18.80;58.50
15574;DHT22;7888;46.748;8.102;2022-10-16T08:59:09;18.80;58.40
15574;DHT22;7888;46.748;8.102;2022-10-16T09:01:41;18.90;58.50
15574;DHT22;7888;46.748;8.102;2022-10-16T09:06:49;19.00;58.40
15574;DHT22;7888;46.748;8.102;2022-10-16T09:09:45;19.00;58.00
15574;DHT22;7888;46.748;8.102;2022-10-16T09:12:43;19.10;57.90
15574;DHT22;7888;46.748;8.102;2022-10-16T09:15:40;19.20;57.60
15574;DHT22;7888;46.748;8.102;2022-10-16T09:18:19;19.20;57.60
15574;DHT22;7888;46.748;8.102;2022-10-16T09:23:51;19.40;58.40
15574;DHT22;7888;46.748;8.102;2022-10-16T09:26:19;19.50;58.20
15574;DHT22;7888;46.748;8.102;2022-10-16T09:28:47;19.60;58.40
15574;DHT22;7888;46.748;8.102;2022-10-16T09:31:18;19.80;57.90
15574;DHT22;7888;46.748;8.102;2022-10-16T09:33:49;20.00;57.50
15574;DHT22;7888;46.748;8.102;2022-10-16T09:36:20;20.10;57.20
15574;DHT22;7888;46.748;8.102;2022-10-16T09:38:47;20.30;57.40
15574;DHT22;7888;46.748;8.102;2022-10-16T09:41:16;20.40;57.20
15574;DHT22;7888;46.748;8.102;2022-10-16T09:43:54;20.60;57.10
15574;DHT22;7888;46.748;8.102;2022-10-16T09:46:35;20.70;56.80
15574;DHT22;7888;46.748;8.102;2022-10-16T09:49:05;20.80;56.30
15574;DHT22;7888;46.748;8.102;2022-10-16T09:51:44;21.00;56.10
15574;DHT22;7888;46.748;8.102;2022-10-16T09:54:20;21.10;56.80
15574;DHT22;7888;46.748;8.102;2022-10-16T09:56:47;21.20;55.40
15574;DHT22;7888;46.748;8.102;2022-10-16T09:59:23;21.40;55.70
15574;DHT22;7888;46.748;8.102;2022-10-16T10:01:51;21.50;55.80
15574;DHT22;7888;46.748;8.102;2022-10-16T10:04:23;21.70;55.60
15574;DHT22;7888;46.748;8.102;2022-10-16T10:06:53;21.80;55.40
15574;DHT22;7888;46.748;8.102;2022-10-16T10:09:34;21.90;55.30
15574;DHT22;7888;46.748;8.102;2022-10-16T10:14:58;22.20;54.20
15574;DHT22;7888;46.748;8.102;2022-10-16T10:17:33;22.40;54.40
15574;DHT22;7888;46.748;8.102;2022-10-16T10:20:14;22.50;54.30
15574;DHT22;7888;46.748;8.102;2022-10-16T10:22:44;22.60;54.10
15574;DHT22;7888;46.748;8.102;2022-10-16T10:38:58;23.20;52.40
15574;DHT22;7888;46.748;8.102;2022-10-16T10:44:07;23.40;52.90
15574;DHT22;7888;46.748;8.102;2022-10-16T10:47:01;23.50;52.80
15574;DHT22;7888;46.748;8.102;2022-10-16T10:55:45;23.90;51.40
15574;DHT22;7888;46.748;8.102;2022-10-16T10:58:54;24.00;50.80
15574;DHT22;7888;46.748;8.102;2022-10-16T11:07:25;24.50;50.50
15574;DHT22;7888;46.748;8.102;2022-10-16T11:10:13;24.70;50.30
15574;DHT22;7888;46.748;8.102;2022-10-16T11:12:47;24.90;49.70
15574;DHT22;7888;46.748;8.102;2022-10-16T11:15:35;25.10;50.00
15574;DHT22;7888;46.748;8.102;2022-10-16T11:18:11;25.30;49.70
15574;DHT22;7888;46.748;8.102;2022-10-16T11:20:54;25.60;49.80
15574;DHT22;7888;46.748;8.102;2022-10-16T11:23:58;25.90;49.10
15574;DHT22;7888;46.748;8.102;2022-10-16T11:26:34;26.10;49.80
15574;DHT22;7888;46.748;8.102;2022-10-16T11:29:05;26.40;49.10
15574;DHT22;7888;46.748;8.102;2022-10-16T11:31:48;26.60;49.30
15574;DHT22;7888;46.748;8.102;2022-10-16T11:34:32;26.90;47.50
15574;DHT22;7888;46.748;8.102;2022-10-16T11:37:11;27.20;48.00
15574;DHT22;7888;46.748;8.102;2022-10-16T11:39:42;27.40;47.30
15574;DHT22;7888;46.748;8.102;2022-10-16T11:42:13;27.70;47.50
15574;DHT22;7888;46.748;8.102;2022-10-16T11:45:32;27.90;47.20
15574;DHT22;7888;46.748;8.102;2022-10-16T11:54:08;28.60;45.60
15574;DHT22;7888;46.748;8.102;2022-10-16T11:56:20;28.70;44.60
15574;DHT22;7888;46.748;8.102;2022-10-16T11:58:57;28.90;45.20
15574;DHT22;7888;46.748;8.102;2022-10-16T12:07:38;29.10;43.80
15574;DHT22;7888;46.748;8.102;2022-10-16T12:10:27;29.00;43.10
15574;DHT22;7888;46.748;8.102;2022-10-16T12:12:54;29.00;43.10
15574;DHT22;7888;46.748;8.102;2022-10-16T12:15:27;29.00;43.20
15574;DHT22;7888;46.748;8.102;2022-10-16T12:17:55;28.90;42.50
15574;DHT22;7888;46.748;8.102;2022-10-16T12:20:30;28.90;43.00
15574;DHT22;7888;46.748;8.102;2022-10-16T12:23:05;28.90;42.20
15574;DHT22;7888;46.748;8.102;2022-10-16T12:25:36;28.90;41.60
15574;DHT22;7888;46.748;8.102;2022-10-16T12:28:20;29.00;41.40
15574;DHT22;7888;46.748;8.102;2022-10-16T12:31:14;29.10;41.30
15574;DHT22;7888;46.748;8.102;2022-10-16T12:33:53;29.30;41.60
15574;DHT22;7888;46.748;8.102;2022-10-16T12:36:32;29.40;42.10
15574;DHT22;7888;46.748;8.102;2022-10-16T12:39:00;29.60;42.10
15574;DHT22;7888;46.748;8.102;2022-10-16T12:41:35;29.70;41.20
15574;DHT22;7888;46.748;8.102;2022-10-16T12:44:05;29.80;41.20
15574;DHT22;7888;46.748;8.102;2022-10-16T12:46:49;29.90;41.00
15574;DHT22;7888;46.748;8.102;2022-10-16T12:51:54;30.10;40.30
15574;DHT22;7888;46.748;8.102;2022-10-16T12:54:27;30.20;40.40
15574;DHT22;7888;46.748;8.102;2022-10-16T13:00:18;30.30;39.50
15574;DHT22;7888;46.748;8.102;2022-10-16T13:08:31;30.70;39.80
15574;DHT22;7888;46.748;8.102;2022-10-16T13:11:39;30.70;40.10
15574;DHT22;7888;46.748;8.102;2022-10-16T13:23:14;30.60;39.20
15574;DHT22;7888;46.748;8.102;2022-10-16T13:28:28;30.70;40.30
15574;DHT22;7888;46.748;8.102;2022-10-16T13:30:58;30.70;39.10
15574;DHT22;7888;46.748;8.102;2022-10-16T13:33:40;30.80;39.90
15574;DHT22;7888;46.748;8.102;2022-10-16T13:36:48;30.90;38.80
15574;DHT22;7888;46.748;8.102;2022-10-16T13:42:09;31.00;39.10
15574;DHT22;7888;46.748;8.102;2022-10-16T13:44:47;31.10;38.60
15574;DHT22;7888;46.748;8.102;2022-10-16T13:50:06;31.10;39.00
15574;DHT22;7888;46.748;8.102;2022-10-16T13:52:43;31.10;38.20
15574;DHT22;7888;46.748;8.102;2022-10-16T13:55:17;31.20;38.60
15574;DHT22;7888;46.748;8.102;2022-10-16T13:57:43;31.20;37.30
15574;DHT22;7888;46.748;8.102;2022-10-16T14:00:23;31.20;38.30
15574;DHT22;7888;46.748;8.102;2022-10-16T14:03:06;31.30;37.70
15574;DHT22;7888;46.748;8.102;2022-10-16T14:06:01;31.30;38.10
15574;DHT22;7888;46.748;8.102;2022-10-16T14:08:30;31.40;37.80
15574;DHT22;7888;46.748;8.102;2022-10-16T14:10:59;31.50;38.60
15574;DHT22;7888;46.748;8.102;2022-10-16T14:13:39;31.60;38.10
15574;DHT22;7888;46.748;8.102;2022-10-16T14:16:16;31.60;37.20
15574;DHT22;7888;46.748;8.102;2022-10-16T14:18:46;31.70;38.00
15574;DHT22;7888;46.748;8.102;2022-10-16T14:21:27;31.70;37.20
15574;DHT22;7888;46.748;8.102;2022-10-16T14:23:54;31.70;38.10
15574;DHT22;7888;46.748;8.102;2022-10-16T14:26:23;31.70;36.90
15574;DHT22;7888;46.748;8.102;2022-10-16T14:29:15;31.70;37.00
15574;DHT22;7888;46.748;8.102;2022-10-16T14:32:04;31.80;36.00
15574;DHT22;7888;46.748;8.102;2022-10-16T14:34:32;31.80;36.50
15574;DHT22;7888;46.748;8.102;2022-10-16T14:37:27;31.80;36.50
15574;DHT22;7888;46.748;8.102;2022-10-16T14:39:55;31.70;36.70
15574;DHT22;7888;46.748;8.102;2022-10-16T14:42:24;31.70;36.80
15574;DHT22;7888;46.748;8.102;2022-10-16T14:44:52;31.70;36.00
15574;DHT22;7888;46.748;8.102;2022-10-16T14:47:22;31.70;36.90
15574;DHT22;7888;46.748;8.102;2022-10-16T14:49:52;31.70;36.20
15574;DHT22;7888;46.748;8.102;2022-10-16T14:52:21;31.60;35.80
15574;DHT22;7888;46.748;8.102;2022-10-16T14:54:51;31.50;35.60
15574;DHT22;7888;46.748;8.102;2022-10-16T14:57:23;31.40;34.50
15574;DHT22;7888;46.748;8.102;2022-10-16T14:59:52;31.20;34.50
15574;DHT22;7888;46.748;8.102;2022-10-16T15:04:57;31.00;35.10
15574;DHT22;7888;46.748;8.102;2022-10-16T15:07:27;30.80;35.50
15574;DHT22;7888;46.748;8.102;2022-10-16T15:09:53;30.70;35.70
15574;DHT22;7888;46.748;8.102;2022-10-16T15:12:19;30.50;36.00
15574;DHT22;7888;46.748;8.102;2022-10-16T15:14:45;30.30;35.60
15574;DHT22;7888;46.748;8.102;2022-10-16T15:17:11;30.10;36.60
15574;DHT22;7888;46.748;8.102;2022-10-16T15:19:37;30.00;37.30
15574;DHT22;7888;46.748;8.102;2022-10-16T15:22:03;29.90;36.70
15574;DHT22;7888;46.748;8.102;2022-10-16T15:24:29;29.80;37.10
15574;DHT22;7888;46.748;8.102;2022-10-16T15:26:55;29.80;36.90
15574;DHT22;7888;46.748;8.102;2022-10-16T15:29:21;29.70;36.70
15574;DHT22;7888;46.748;8.102;2022-10-16T15:31:47;29.60;36.40
15574;DHT22;7888;46.748;8.102;2022-10-16T15:34:13;29.60;36.70
15574;DHT22;7888;46.748;8.102;2022-10-16T15:36:40;29.50;36.30
15574;DHT22;7888;46.748;8.102;2022-10-16T15:39:15;29.50;36.90
15574;DHT22;7888;46.748;8.102;2022-10-16T15:41:44;29.40;36.30
15574;DHT22;7888;46.748;8.102;2022-10-16T15:44:16;29.40;36.50
15574;DHT22;7888;46.748;8.102;2022-10-16T15:46:43;29.30;36.80
15574;DHT22;7888;46.748;8.102;2022-10-16T15:49:09;29.20;36.50
15574;DHT22;7888;46.748;8.102;2022-10-16T15:51:41;29.10;36.40
15574;DHT22;7888;46.748;8.102;2022-10-16T15:54:08;28.90;37.10
15574;DHT22;7888;46.748;8.102;2022-10-16T15:56:34;28.80;36.40
15574;DHT22;7888;46.748;8.102;2022-10-16T15:59:02;28.70;36.40
15574;DHT22;7888;46.748;8.102;2022-10-16T16:01:33;28.60;36.50
15574;DHT22;7888;46.748;8.102;2022-10-16T16:04:00;28.50;36.40
15574;DHT22;7888;46.748;8.102;2022-10-16T16:06:26;28.40;36.70
15574;DHT22;7888;46.748;8.102;2022-10-16T16:08:52;28.30;36.60
15574;DHT22;7888;46.748;8.102;2022-10-16T16:11:19;28.20;36.60
15574;DHT22;7888;46.748;8.102;2022-10-16T16:13:45;28.00;36.70
15574;DHT22;7888;46.748;8.102;2022-10-16T16:16:13;27.90;36.70
15574;DHT22;7888;46.748;8.102;2022-10-16T16:18:41;27.80;36.70
15574;DHT22;7888;46.748;8.102;2022-10-16T16:21:10;27.70;36.90
15574;DHT22;7888;46.748;8.102;2022-10-16T16:23:37;27.60;36.90
15574;DHT22;7888;46.748;8.102;2022-10-16T16:29:12;27.30;37.20
15574;DHT22;7888;46.748;8.102;2022-10-16T16:31:40;27.10;37.50
15574;DHT22;7888;46.748;8.102;2022-10-16T16:34:06;27.00;37.80
15574;DHT22;7888;46.748;8.102;2022-10-16T16:36:33;26.80;37.90
15574;DHT22;7888;46.748;8.102;2022-10-16T16:39:00;26.70;38.00
15574;DHT22;7888;46.748;8.102;2022-10-16T16:41:27;26.50;38.20
15574;DHT22;7888;46.748;8.102;2022-10-16T16:44:05;26.40;38.30
15574;DHT22;7888;46.748;8.102;2022-10-16T16:46:34;26.20;38.40
15574;DHT22;7888;46.748;8.102;2022-10-16T16:49:01;26.10;38.60
15574;DHT22;7888;46.748;8.102;2022-10-16T16:51:28;25.90;38.70
15574;DHT22;7888;46.748;8.102;2022-10-16T16:53:54;25.80;38.90
15574;DHT22;7888;46.748;8.102;2022-10-16T16:56:22;25.70;39.00
15574;DHT22;7888;46.748;8.102;2022-10-16T16:58:50;25.50;39.10
15574;DHT22;7888;46.748;8.102;2022-10-16T17:01:17;25.40;39.10
15574;DHT22;7888;46.748;8.102;2022-10-16T17:03:44;25.30;39.30
15574;DHT22;7888;46.748;8.102;2022-10-16T17:06:12;25.20;39.40
15574;DHT22;7888;46.748;8.102;2022-10-16T17:08:40;25.00;39.50
15574;DHT22;7888;46.748;8.102;2022-10-16T17:11:15;24.90;39.60
15574;DHT22;7888;46.748;8.102;2022-10-16T17:13:42;24.80;39.90
15574;DHT22;7888;46.748;8.102;2022-10-16T17:16:08;24.70;40.10
15574;DHT22;7888;46.748;8.102;2022-10-16T17:18:35;24.60;40.10
15574;DHT22;7888;46.748;8.102;2022-10-16T17:21:03;24.50;40.30
15574;DHT22;7888;46.748;8.102;2022-10-16T17:23:33;24.40;40.50
15574;DHT22;7888;46.748;8.102;2022-10-16T17:26:08;24.30;40.60
15574;DHT22;7888;46.748;8.102;2022-10-16T17:28:37;24.20;40.70
15574;DHT22;7888;46.748;8.102;2022-10-16T17:31:14;24.10;40.80
15574;DHT22;7888;46.748;8.102;2022-10-16T17:33:43;24.00;40.90
15574;DHT22;7888;46.748;8.102;2022-10-16T17:36:10;23.90;40.90
15574;DHT22;7888;46.748;8.102;2022-10-16T17:38:39;23.80;41.00
15574;DHT22;7888;46.748;8.102;2022-10-16T17:41:18;23.70;41.20
15574;DHT22;7888;46.748;8.102;2022-10-16T17:43:46;23.60;41.50
15574;DHT22;7888;46.748;8.102;2022-10-16T17:46:14;23.50;41.30
15574;DHT22;7888;46.748;8.102;2022-10-16T17:48:45;23.40;41.50
15574;DHT22;7888;46.748;8.102;2022-10-16T17:51:14;23.30;41.60